sensor_id;sensor_type;location;lat;lon;timestamp;pressure;altitude;pressure_sealevel;temperature;humidity
29315;BME280;16320;53.954;9.506;2024-01-30T00:00:59;102490.34;;;6.67;100.00
29315;BME280;16320;53.954;9.506;2024-01-30T00:03:27;102486.03;;;6.66;100.00
29315;BME280;16320;53.954;9.506;2024-01-30T00:05:56;102484.31;;;6.62;100.00
29315;BME280;16320;53.954;9.506;2024-01-30T00:08:26;102486.03;;;6.63;100.00
29315;BME280;16320;53.954;9.506;2024-01-30T00:10:55;102491.25;;;6.63;100.00
29315;BME280;16320;53.954;9.506;2024-01-30T00:13:23;102491.28;;;6.60;100.00
29315;BME280;16320;53.954;9.506;2024-01-30T00:15:51;102483.47;;;6.58;100.00
29315;BME280;16320;53.954;9.506;2024-01-30T00:18:20;102493.03;;;6.58;100.00
29315;BME280;16320;53.954;9.506;2024-01-30T00:20:48;102498.28;;;6.56;100.00
29315;BME280;16320;53.954;9.506;2024-01-30T00:23:16;102500.91;;;6.55;100.00
29315;BME280;16320;53.954;9.506;2024-01-30T00:25:47;102495.66;;;6.56;100.00
29315;BME280;16320;53.954;9.506;2024-01-30T00:28:14;102506.94;;;6.60;100.00
29315;BME280;16320;53.954;9.506;2024-01-30T00:30:43;102517.41;;;6.60;100.00
29315;BME280;16320;53.954;9.506;2024-01-30T00:33:11;102517.38;;;6.66;100.00
29315;BME280;16320;53.954;9.506;2024-01-30T00:35:39;102519.06;;;6.67;100.00
29315;BME280;16320;53.954;9.506;2024-01-30T00:38:07;102520.81;;;6.68;100.00
29315;BME280;16320;53.954;9.506;2024-01-30T00:40:35;102519.94;;;6.69;100.00
29315;BME280;16320;53.954;9.506;2024-01-30T00:43:04;102529.50;;;6.70;100.00
29315;BME280;16320;53.954;9.506;2024-01-30T00:45:34;102537.34;;;6.70;100.00
29315;BME280;16320;53.954;9.506;2024-01-30T00:48:03;102535.56;;;6.74;100.00
29315;BME280;16320;53.954;9.506;2024-01-30T00:50:32;102533.84;;;6.74;100.00
29315;BME280;16320;53.954;9.506;2024-01-30T00:53:00;102532.94;;;6.75;100.00
29315;BME280;16320;53.954;9.506;2024-01-30T00:55:28;102532.97;;;6.72;100.00
29315;BME280;16320;53.954;9.506;2024-01-30T00:57:56;102522.53;;;6.72;100.00
29315;BME280;16320;53.954;9.506;2024-01-30T01:00:24;102533.84;;;6.74;100.00
29315;BME280;16320;53.954;9.506;2024-01-30T01:02:56;102532.94;;;6.75;100.00
29315;BME280;16320;53.954;9.506;2024-01-30T01:05:24;102523.41;;;6.70;100.00
29315;BME280;16320;53.954;9.506;2024-01-30T01:07:53;102519.06;;;6.70;100.00
29315;BME280;16320;53.954;9.506;2024-01-30T01:10:21;102516.47;;;6.69;100.00
29315;BME280;16320;53.954;9.506;2024-01-30T01:12:49;102506.00;;;6.69;100.00
29315;BME280;16320;53.954;9.506;2024-01-30T01:15:18;102506.94;;;6.63;100.00
29315;BME280;16320;53.954;9.506;2024-01-30T01:17:46;102505.19;;;6.62;100.00
29315;BME280;16320;53.954;9.506;2024-01-30T01:20:14;102503.50;;;6.58;100.00
29315;BME280;16320;53.954;9.506;2024-01-30T01:22:42;102497.38;;;6.56;100.00
29315;BME280;16320;53.954;9.506;2024-01-30T01:25:10;102500.03;;;6.53;100.00
29315;BME280;16320;53.954;9.506;2024-01-30T01:27:38;102494.81;;;6.51;100.00
29315;BME280;16320;53.954;9.506;2024-01-30T01:30:11;102489.63;;;6.47;100.00
29315;BME280;16320;53.954;9.506;2024-01-30T01:32:45;102491.38;;;6.45;100.00
29315;BME280;16320;53.954;9.506;2024-01-30T01:35:18;102496.59;;;6.45;100.00
29315;BME280;16320;53.954;9.506;2024-01-30T01:37:46;102486.16;;;6.43;100.00
29315;BME280;16320;53.954;9.506;2024-01-30T01:40:15;102482.69;;;6.43;100.00
29315;BME280;16320;53.954;9.506;2024-01-30T01:42:43;102485.31;;;6.39;100.00
29315;BME280;16320;53.954;9.506;2024-01-30T01:45:11;102487.06;;;6.39;100.00
29315;BME280;16320;53.954;9.506;2024-01-30T01:47:39;102483.59;;;6.37;100.00
29315;BME280;16320;53.954;9.506;2024-01-30T01:50:07;102476.66;;;6.34;100.00
29315;BME280;16320;53.954;9.506;2024-01-30T01:52:36;102479.25;;;6.34;100.00
29315;BME280;16320;53.954;9.506;2024-01-30T01:55:05;102473.16;;;6.35;100.00
29315;BME280;16320;53.954;9.506;2024-01-30T01:57:34;102469.66;;;6.38;100.00
29315;BME280;16320;53.954;9.506;2024-01-30T02:00:03;102468.81;;;6.37;100.00
29315;BME280;16320;53.954;9.506;2024-01-30T02:02:36;102468.81;;;6.34;100.00
29315;BME280;16320;53.954;9.506;2024-01-30T02:05:05;102467.06;;;6.33;100.00
29315;BME280;16320;53.954;9.506;2024-01-30T02:07:33;102457.53;;;6.32;100.00
29315;BME280;16320;53.954;9.506;2024-01-30T02:10:01;102462.75;;;6.34;100.00
29315;BME280;16320;53.954;9.506;2024-01-30T02:12:30;102457.50;;;6.35;100.00
29315;BME280;16320;53.954;9.506;2024-01-30T02:14:58;102458.41;;;6.31;100.00
29315;BME280;16320;53.954;9.506;2024-01-30T02:17:26;102449.69;;;6.35;100.00
29315;BME280;16320;53.954;9.506;2024-01-30T02:19:54;102455.78;;;6.33;100.00
29315;BME280;16320;53.954;9.506;2024-01-30T02:22:23;102447.94;;;6.34;100.00
29315;BME280;16320;53.954;9.506;2024-01-30T02:24:53;102456.66;;;6.30;100.00
29315;BME280;16320;53.954;9.506;2024-01-30T02:27:21;102440.13;;;6.31;100.00
29315;BME280;16320;53.954;9.506;2024-01-30T02:29:49;102427.09;;;6.25;100.00
29315;BME280;16320;53.954;9.506;2024-01-30T02:32:17;102423.66;;;6.21;100.00
29315;BME280;16320;53.954;9.506;2024-01-30T02:34:46;102424.53;;;6.20;100.00
29315;BME280;16320;53.954;9.506;2024-01-30T02:37:14;102408.00;;;6.20;100.00
29315;BME280;16320;53.954;9.506;2024-01-30T02:39:43;102408.03;;;6.17;100.00
29315;BME280;16320;53.954;9.506;2024-01-30T02:42:11;102401.97;;;6.12;100.00
29315;BME280;16320;53.954;9.506;2024-01-30T02:44:39;102406.34;;;6.08;100.00
29315;BME280;16320;53.954;9.506;2024-01-30T02:47:07;102395.94;;;6.05;100.00
29315;BME280;16320;53.954;9.506;2024-01-30T02:49:35;102403.78;;;6.00;100.00
29315;BME280;16320;53.954;9.506;2024-01-30T02:52:04;102406.41;;;5.97;100.00
29315;BME280;16320;53.954;9.506;2024-01-30T02:54:32;102407.25;;;5.98;100.00
29315;BME280;16320;53.954;9.506;2024-01-30T02:57:00;102402.03;;;5.99;100.00
29315;BME280;16320;53.954;9.506;2024-01-30T02:59:29;102392.47;;;5.95;100.00
29315;BME280;16320;53.954;9.506;2024-01-30T03:01:59;102382.03;;;5.95;100.00
29315;BME280;16320;53.954;9.506;2024-01-30T03:04:28;102394.25;;;5.96;100.00
29315;BME280;16320;53.954;9.506;2024-01-30T03:06:57;102381.19;;;5.95;100.00
29315;BME280;16320;53.954;9.506;2024-01-30T03:09:25;102384.66;;;5.94;100.00
29315;BME280;16320;53.954;9.506;2024-01-30T03:11:53;102390.72;;;5.94;100.00
29315;BME280;16320;53.954;9.506;2024-01-30T03:14:21;102383.81;;;5.90;100.00
29315;BME280;16320;53.954;9.506;2024-01-30T03:16:48;102385.53;;;5.91;100.00
29315;BME280;16320;53.954;9.506;2024-01-30T03:19:16;102382.06;;;5.89;100.00
29315;BME280;16320;53.954;9.506;2024-01-30T03:21:45;102374.25;;;5.87;100.00
29315;BME280;16320;53.954;9.506;2024-01-30T03:24:13;102369.94;;;5.85;100.00
29315;BME280;16320;53.954;9.506;2024-01-30T03:26:41;102365.59;;;5.84;100.00
29315;BME280;16320;53.954;9.506;2024-01-30T03:29:09;102361.25;;;5.83;100.00
29315;BME280;16320;53.954;9.506;2024-01-30T03:31:40;102354.28;;;5.85;100.00
29315;BME280;16320;53.954;9.506;2024-01-30T03:34:09;102348.19;;;5.83;100.00
29315;BME280;16320;53.954;9.506;2024-01-30T03:36:37;102348.19;;;5.84;100.00
29315;BME280;16320;53.954;9.506;2024-01-30T03:39:06;102335.16;;;5.81;100.00
29315;BME280;16320;53.954;9.506;2024-01-30T03:41:34;102337.78;;;5.80;100.00
29315;BME280;16320;53.954;9.506;2024-01-30T03:44:03;102335.22;;;5.77;100.00
29315;BME280;16320;53.954;9.506;2024-01-30T03:46:31;102338.69;;;5.79;100.00
29315;BME280;16320;53.954;9.506;2024-01-30T03:48:59;102332.63;;;5.75;100.00
29315;BME280;16320;53.954;9.506;2024-01-30T03:51:27;102331.72;;;5.75;100.00
29315;BME280;16320;53.954;9.506;2024-01-30T03:53:55;102330.88;;;5.73;100.00
29315;BME280;16320;53.954;9.506;2024-01-30T03:56:23;102330.88;;;5.73;100.00
29315;BME280;16320;53.954;9.506;2024-01-30T03:58:52;102331.75;;;5.72;100.00
29315;BME280;16320;53.954;9.506;2024-01-30T04:01:21;102335.25;;;5.71;100.00
29315;BME280;16320;53.954;9.506;2024-01-30T04:03:49;102337.88;;;5.66;100.00
29315;BME280;16320;53.954;9.506;2024-01-30T04:06:17;102340.50;;;5.64;100.00
29315;BME280;16320;53.954;9.506;2024-01-30T04:08:45;102343.94;;;5.65;100.00
29315;BME280;16320;53.954;9.506;2024-01-30T04:11:13;102342.22;;;5.65;100.00
29315;BME280;16320;53.954;9.506;2024-01-30T04:13:43;102339.63;;;5.64;100.00
29315;BME280;16320;53.954;9.506;2024-01-30T04:16:20;102331.84;;;5.59;100.00
29315;BME280;16320;53.954;9.506;2024-01-30T04:18:51;102333.56;;;5.57;100.00
29315;BME280;16320;53.954;9.506;2024-01-30T04:21:21;102336.22;;;5.54;100.00
29315;BME280;16320;53.954;9.506;2024-01-30T04:23:51;102343.16;;;5.52;100.00
29315;BME280;16320;53.954;9.506;2024-01-30T04:26:19;102344.03;;;5.51;100.00
29315;BME280;16320;53.954;9.506;2024-01-30T04:28:47;102339.69;;;5.47;100.00
29315;BME280;16320;53.954;9.506;2024-01-30T04:31:15;102339.72;;;5.44;100.00
29315;BME280;16320;53.954;9.506;2024-01-30T04:33:43;102338.00;;;5.44;100.00
29315;BME280;16320;53.954;9.506;2024-01-30T04:36:12;102333.66;;;5.42;100.00
29315;BME280;16320;53.954;9.506;2024-01-30T04:38:40;102331.91;;;5.42;100.00
29315;BME280;16320;53.954;9.506;2024-01-30T04:41:08;102323.22;;;5.42;100.00
29315;BME280;16320;53.954;9.506;2024-01-30T04:43:36;102322.34;;;5.43;100.00
29315;BME280;16320;53.954;9.506;2024-01-30T04:46:06;102318.00;;;5.42;100.00
29315;BME280;16320;53.954;9.506;2024-01-30T04:48:34;102324.97;;;5.43;100.00
29315;BME280;16320;53.954;9.506;2024-01-30T04:51:02;102318.88;;;5.41;100.00
29315;BME280;16320;53.954;9.506;2024-01-30T04:53:31;102319.75;;;5.43;100.00
29315;BME280;16320;53.954;9.506;2024-01-30T04:55:59;102322.34;;;5.43;100.00
29315;BME280;16320;53.954;9.506;2024-01-30T04:58:27;102334.50;;;5.41;100.00
29315;BME280;16320;53.954;9.506;2024-01-30T05:00:55;102326.69;;;5.41;100.00
29315;BME280;16320;53.954;9.506;2024-01-30T05:03:25;102335.41;;;5.40;100.00
29315;BME280;16320;53.954;9.506;2024-01-30T05:05:53;102328.44;;;5.36;100.00
29315;BME280;16320;53.954;9.506;2024-01-30T05:08:21;102328.44;;;5.36;100.00
29315;BME280;16320;53.954;9.506;2024-01-30T05:10:50;102331.06;;;5.32;100.00
29315;BME280;16320;53.954;9.506;2024-01-30T05:13:18;102324.16;;;5.31;100.00
29315;BME280;16320;53.954;9.506;2024-01-30T05:15:46;102319.78;;;5.30;100.00
29315;BME280;16320;53.954;9.506;2024-01-30T05:18:15;102328.47;;;5.31;100.00
29315;BME280;16320;53.954;9.506;2024-01-30T05:20:43;102329.34;;;5.31;100.00
29315;BME280;16320;53.954;9.506;2024-01-30T05:23:10;102336.28;;;5.36;100.00
29315;BME280;16320;53.954;9.506;2024-01-30T05:25:38;102340.63;;;5.37;100.00
29315;BME280;16320;53.954;9.506;2024-01-30T05:28:06;102340.59;;;5.43;100.00
29315;BME280;16320;53.954;9.506;2024-01-30T05:30:34;102335.38;;;5.43;100.00
29315;BME280;16320;53.954;9.506;2024-01-30T05:33:02;102344.91;;;5.45;100.00
29315;BME280;16320;53.954;9.506;2024-01-30T05:35:30;102343.22;;;5.43;100.00
29315;BME280;16320;53.954;9.506;2024-01-30T05:37:58;102343.22;;;5.43;100.00
29315;BME280;16320;53.954;9.506;2024-01-30T05:40:26;102342.31;;;5.44;100.00
29315;BME280;16320;53.954;9.506;2024-01-30T05:42:54;102344.06;;;5.45;100.00
29315;BME280;16320;53.954;9.506;2024-01-30T05:45:22;102336.22;;;5.48;100.00
29315;BME280;16320;53.954;9.506;2024-01-30T05:47:50;102335.38;;;5.46;100.00
29315;BME280;16320;53.954;9.506;2024-01-30T05:50:19;102329.28;;;5.47;100.00
29315;BME280;16320;53.954;9.506;2024-01-30T05:52:50;102323.19;;;5.48;100.00
29315;BME280;16320;53.954;9.506;2024-01-30T05:55:18;102324.91;;;5.52;100.00
29315;BME280;16320;53.954;9.506;2024-01-30T05:57:46;102317.97;;;5.48;100.00
29315;BME280;16320;53.954;9.506;2024-01-30T06:00:15;102311.00;;;5.50;100.00
29315;BME280;16320;53.954;9.506;2024-01-30T06:02:43;102317.09;;;5.50;100.00
29315;BME280;16320;53.954;9.506;2024-01-30T06:05:12;102308.41;;;5.52;100.00
29315;BME280;16320;53.954;9.506;2024-01-30T06:07:40;102321.44;;;5.50;100.00
29315;BME280;16320;53.954;9.506;2024-01-30T06:10:08;102319.69;;;5.52;100.00
29315;BME280;16320;53.954;9.506;2024-01-30T06:12:38;102319.69;;;5.52;100.00
29315;BME280;16320;53.954;9.506;2024-01-30T06:15:06;102319.69;;;5.49;100.00
29315;BME280;16320;53.954;9.506;2024-01-30T06:17:34;102324.88;;;5.54;100.00
29315;BME280;16320;53.954;9.506;2024-01-30T06:20:03;102324.06;;;5.48;100.00
29315;BME280;16320;53.954;9.506;2024-01-30T06:22:31;102319.69;;;5.49;100.00
29315;BME280;16320;53.954;9.506;2024-01-30T06:24:59;102324.91;;;5.49;100.00
29315;BME280;16320;53.954;9.506;2024-01-30T06:27:27;102327.53;;;5.47;100.00
29315;BME280;16320;53.954;9.506;2024-01-30T06:29:56;102332.78;;;5.44;100.00
29315;BME280;16320;53.954;9.506;2024-01-30T06:32:24;102327.56;;;5.41;100.00
29315;BME280;16320;53.954;9.506;2024-01-30T06:34:52;102330.19;;;5.40;100.00
29315;BME280;16320;53.954;9.506;2024-01-30T06:37:20;102333.63;;;5.43;100.00
29315;BME280;16320;53.954;9.506;2024-01-30T06:39:48;102331.03;;;5.45;100.00
29315;BME280;16320;53.954;9.506;2024-01-30T06:42:16;102328.41;;;5.48;100.00
29315;BME280;16320;53.954;9.506;2024-01-30T06:44:45;102328.41;;;5.45;100.00
29315;BME280;16320;53.954;9.506;2024-01-30T06:47:13;102336.22;;;5.46;100.00
29315;BME280;16320;53.954;9.506;2024-01-30T06:49:41;102324.91;;;5.49;100.00
29315;BME280;16320;53.954;9.506;2024-01-30T06:52:11;102324.97;;;5.46;100.00
29315;BME280;16320;53.954;9.506;2024-01-30T06:54:39;102326.66;;;5.50;100.00
29315;BME280;16320;53.954;9.506;2024-01-30T06:57:09;102329.25;;;5.52;100.00
29315;BME280;16320;53.954;9.506;2024-01-30T06:59:38;102328.38;;;5.54;100.00
29315;BME280;16320;53.954;9.506;2024-01-30T07:02:10;102324.88;;;5.58;100.00
29315;BME280;16320;53.954;9.506;2024-01-30T07:04:39;102319.66;;;5.58;100.00
29315;BME280;16320;53.954;9.506;2024-01-30T07:07:13;102325.72;;;5.62;100.00
29315;BME280;16320;53.954;9.506;2024-01-30T07:09:42;102328.31;;;5.60;100.00
29315;BME280;16320;53.954;9.506;2024-01-30T07:12:10;102324.88;;;5.58;100.00
29315;BME280;16320;53.954;9.506;2024-01-30T07:14:39;102324.88;;;5.61;100.00
29315;BME280;16320;53.954;9.506;2024-01-30T07:17:07;102325.72;;;5.65;100.00
29315;BME280;16320;53.954;9.506;2024-01-30T07:19:35;102319.63;;;5.67;100.00
29315;BME280;16320;53.954;9.506;2024-01-30T07:22:03;102317.84;;;5.73;100.00
29315;BME280;16320;53.954;9.506;2024-01-30T07:24:31;102310.03;;;5.73;100.00
29315;BME280;16320;53.954;9.506;2024-01-30T07:26:59;102307.41;;;5.73;100.00
29315;BME280;16320;53.954;9.506;2024-01-30T07:29:28;102296.97;;;5.76;100.00
29315;BME280;16320;53.954;9.506;2024-01-30T07:31:55;102301.28;;;5.78;100.00
29315;BME280;16320;53.954;9.506;2024-01-30T07:34:24;102302.16;;;5.82;100.00
29315;BME280;16320;53.954;9.506;2024-01-30T07:36:54;102279.53;;;5.84;100.00
29315;BME280;16320;53.954;9.506;2024-01-30T07:39:22;102291.69;;;5.85;100.00
29315;BME280;16320;53.954;9.506;2024-01-30T07:41:50;102292.56;;;5.87;100.00
29315;BME280;16320;53.954;9.506;2024-01-30T07:44:20;102280.38;;;5.86;100.00
29315;BME280;16320;53.954;9.506;2024-01-30T07:46:48;102277.75;;;5.91;100.00
29315;BME280;16320;53.954;9.506;2024-01-30T07:49:16;102278.56;;;5.94;100.00
29315;BME280;16320;53.954;9.506;2024-01-30T07:51:45;102275.13;;;5.97;100.00
29315;BME280;16320;53.954;9.506;2024-01-30T07:54:16;102272.50;;;5.98;100.00
29315;BME280;16320;53.954;9.506;2024-01-30T08:03:55;102260.31;;;6.00;100.00
29315;BME280;16320;53.954;9.506;2024-01-30T08:06:23;102248.13;;;5.99;100.00
29315;BME280;16320;53.954;9.506;2024-01-30T08:08:51;102247.22;;;6.07;100.00
29315;BME280;16320;53.954;9.506;2024-01-30T08:11:23;102251.53;;;6.08;100.00
29315;BME280;16320;53.954;9.506;2024-01-30T08:13:53;102251.47;;;6.17;100.00
29315;BME280;16320;53.954;9.506;2024-01-30T08:16:21;102242.75;;;6.21;100.00
29315;BME280;16320;53.954;9.506;2024-01-30T08:18:49;102234.91;;;6.24;100.00
29315;BME280;16320;53.954;9.506;2024-01-30T08:21:17;102232.25;;;6.27;100.00
29315;BME280;16320;53.954;9.506;2024-01-30T08:23:45;102231.34;;;6.31;100.00
29315;BME280;16320;53.954;9.506;2024-01-30T08:26:13;102243.47;;;6.37;100.00
29315;BME280;16320;53.954;9.506;2024-01-30T08:28:41;102243.50;;;6.35;100.00
29315;BME280;16320;53.954;9.506;2024-01-30T08:31:12;102245.19;;;6.39;100.00
29315;BME280;16320;53.954;9.506;2024-01-30T08:33:40;102246.03;;;6.38;100.00
29315;BME280;16320;53.954;9.506;2024-01-30T08:36:11;102252.13;;;6.40;100.00
29315;BME280;16320;53.954;9.506;2024-01-30T08:38:39;102264.31;;;6.38;100.00
29315;BME280;16320;53.954;9.506;2024-01-30T08:41:07;102266.06;;;6.39;100.00
29315;BME280;16320;53.954;9.506;2024-01-30T08:43:35;102265.97;;;6.49;100.00
29315;BME280;16320;53.954;9.506;2024-01-30T08:46:04;102261.56;;;6.54;100.00
29315;BME280;16320;53.954;9.506;2024-01-30T08:48:32;102266.78;;;6.55;100.00
29315;BME280;16320;53.954;9.506;2024-01-30T08:51:00;102278.06;;;6.57;100.00
29315;BME280;16320;53.954;9.506;2024-01-30T08:53:28;102280.63;;;6.62;100.00
29315;BME280;16320;53.954;9.506;2024-01-30T08:55:56;102274.53;;;6.65;100.00
29315;BME280;16320;53.954;9.506;2024-01-30T08:58:25;102278.84;;;6.67;100.00
29315;BME280;16320;53.954;9.506;2024-01-30T09:00:53;102277.03;;;6.72;100.00
29315;BME280;16320;53.954;9.506;2024-01-30T09:03:22;102277.00;;;6.75;100.00
29315;BME280;16320;53.954;9.506;2024-01-30T09:05:50;102273.50;;;6.80;100.00
29315;BME280;16320;53.954;9.506;2024-01-30T09:08:18;102267.34;;;6.84;100.00
29315;BME280;16320;53.954;9.506;2024-01-30T09:10:46;102252.47;;;6.89;100.00
29315;BME280;16320;53.954;9.506;2024-01-30T09:13:15;102240.28;;;6.89;100.00
29315;BME280;16320;53.954;9.506;2024-01-30T09:15:43;102240.22;;;6.97;100.00
29315;BME280;16320;53.954;9.506;2024-01-30T09:18:11;102234.13;;;6.93;100.00
29315;BME280;16320;53.954;9.506;2024-01-30T09:20:39;102252.41;;;6.95;100.00
29315;BME280;16320;53.954;9.506;2024-01-30T09:23:07;102253.22;;;6.99;100.00
29315;BME280;16320;53.954;9.506;2024-01-30T09:25:35;102259.34;;;6.99;100.00
29315;BME280;16320;53.954;9.506;2024-01-30T09:28:05;102252.38;;;6.96;100.00
29315;BME280;16320;53.954;9.506;2024-01-30T09:30:33;102262.75;;;7.04;100.00
29315;BME280;16320;53.954;9.506;2024-01-30T09:33:01;102248.81;;;7.05;100.00
29315;BME280;16320;53.954;9.506;2024-01-30T09:35:30;102258.38;;;7.05;100.00
29315;BME280;16320;53.954;9.506;2024-01-30T09:37:58;102263.50;;;7.14;100.00
29315;BME280;16320;53.954;9.506;2024-01-30T09:40:26;102259.13;;;7.14;100.00
29315;BME280;16320;53.954;9.506;2024-01-30T09:42:55;102254.66;;;7.23;100.00
29315;BME280;16320;53.954;9.506;2024-01-30T09:45:25;102259.81;;;7.29;100.00
29315;BME280;16320;53.954;9.506;2024-01-30T09:47:53;102245.84;;;7.31;100.00
29315;BME280;16320;53.954;9.506;2024-01-30T09:50:21;102250.16;;;7.34;100.00
29315;BME280;16320;53.954;9.506;2024-01-30T09:52:51;102241.47;;;7.32;100.00
29315;BME280;16320;53.954;9.506;2024-01-30T09:55:19;102236.16;;;7.38;100.00
29315;BME280;16320;53.954;9.506;2024-01-30T09:57:47;102229.97;;;7.45;100.00
29315;BME280;16320;53.954;9.506;2024-01-30T10:00:16;102220.41;;;7.44;100.00
29315;BME280;16320;53.954;9.506;2024-01-30T10:02:44;102217.75;;;7.47;100.00
29315;BME280;16320;53.954;9.506;2024-01-30T10:05:15;102208.09;;;7.53;100.00
29315;BME280;16320;53.954;9.506;2024-01-30T10:07:56;102209.81;;;7.52;100.00
29315;BME280;16320;53.954;9.506;2024-01-30T10:10:26;102214.94;;;7.58;100.00
29315;BME280;16320;53.954;9.506;2024-01-30T10:12:54;102200.03;;;7.65;100.00
29315;BME280;16320;53.954;9.506;2024-01-30T10:15:22;102186.81;;;7.74;100.00
29315;BME280;16320;53.954;9.506;2024-01-30T10:17:51;102186.75;;;7.77;100.00
29315;BME280;16320;53.954;9.506;2024-01-30T10:20:19;102174.47;;;7.82;100.00
29315;BME280;16320;53.954;9.506;2024-01-30T10:22:49;102183.19;;;7.81;100.00
29315;BME280;16320;53.954;9.506;2024-01-30T10:25:17;102172.72;;;7.81;100.00
29315;BME280;16320;53.954;9.506;2024-01-30T10:27:46;102171.78;;;7.87;100.00
29315;BME280;16320;53.954;9.506;2024-01-30T10:30:15;102194.50;;;7.83;100.00
29315;BME280;16320;53.954;9.506;2024-01-30T10:32:43;102212.78;;;7.86;100.00
29315;BME280;16320;53.954;9.506;2024-01-30T10:35:11;102194.31;;;7.94;100.00
29315;BME280;16320;53.954;9.506;2024-01-30T10:37:41;102195.28;;;7.88;100.00
29315;BME280;16320;53.954;9.506;2024-01-30T10:40:14;102196.16;;;7.89;100.00
29315;BME280;16320;53.954;9.506;2024-01-30T10:42:45;102208.38;;;7.88;100.00
29315;BME280;16320;53.954;9.506;2024-01-30T10:45:14;102210.16;;;7.86;100.00
29315;BME280;16320;53.954;9.506;2024-01-30T10:47:50;102224.00;;;7.93;100.00
29315;BME280;16320;53.954;9.506;2024-01-30T10:50:18;102217.09;;;7.87;100.00
29315;BME280;16320;53.954;9.506;2024-01-30T10:52:47;102215.28;;;7.91;100.00
29315;BME280;16320;53.954;9.506;2024-01-30T10:55:16;102220.59;;;7.90;100.00
29315;BME280;16320;53.954;9.506;2024-01-30T10:57:45;102223.19;;;7.90;100.00
29315;BME280;16320;53.954;9.506;2024-01-30T11:00:14;102219.66;;;7.91;100.00
29315;BME280;16320;53.954;9.506;2024-01-30T11:02:45;102220.41;;;7.99;100.00
29315;BME280;16320;53.954;9.506;2024-01-30T11:05:14;102207.38;;;7.96;100.00
29315;BME280;16320;53.954;9.506;2024-01-30T11:07:43;102212.59;;;7.96;100.00
29315;BME280;16320;53.954;9.506;2024-01-30T11:10:12;102210.03;;;7.93;100.00
29315;BME280;16320;53.954;9.506;2024-01-30T11:12:43;102202.13;;;7.96;100.00
29315;BME280;16320;53.954;9.506;2024-01-30T11:15:17;102198.66;;;7.97;100.00
29315;BME280;16320;53.954;9.506;2024-01-30T11:20:22;102173.25;;;8.02;100.00
29315;BME280;16320;53.954;9.506;2024-01-30T11:22:54;102186.25;;;8.08;100.00
29315;BME280;16320;53.954;9.506;2024-01-30T11:25:25;102169.56;;;8.12;100.00
29315;BME280;16320;53.954;9.506;2024-01-30T11:27:55;102193.13;;;8.12;100.00
29315;BME280;16320;53.954;9.506;2024-01-30T11:30:31;102206.25;;;8.11;100.00
29315;BME280;16320;53.954;9.506;2024-01-30T11:35:37;102203.50;;;8.18;100.00
29315;BME280;16320;53.954;9.506;2024-01-30T11:38:09;102204.28;;;8.22;100.00
29315;BME280;16320;53.954;9.506;2024-01-30T11:40:38;102204.28;;;8.23;100.00
29315;BME280;16320;53.954;9.506;2024-01-30T11:43:08;102189.47;;;8.22;100.00
29315;BME280;16320;53.954;9.506;2024-01-30T11:45:37;102201.69;;;8.20;100.00
29315;BME280;16320;53.954;9.506;2024-01-30T11:48:06;102192.91;;;8.24;100.00
29315;BME280;16320;53.954;9.506;2024-01-30T11:50:38;102194.59;;;8.29;100.00
29315;BME280;16320;53.954;9.506;2024-01-30T11:53:07;102195.47;;;8.28;100.00
29315;BME280;16320;53.954;9.506;2024-01-30T11:55:35;102192.75;;;8.34;100.00
29315;BME280;16320;53.954;9.506;2024-01-30T11:58:04;102185.78;;;8.33;100.00
29315;BME280;16320;53.954;9.506;2024-01-30T12:00:33;102184.00;;;8.33;100.00
29315;BME280;16320;53.954;9.506;2024-01-30T12:03:02;102180.50;;;8.36;100.00
29315;BME280;16320;53.954;9.506;2024-01-30T12:05:33;102184.00;;;8.35;100.00
29315;BME280;16320;53.954;9.506;2024-01-30T12:08:01;102171.69;;;8.40;100.00
29315;BME280;16320;53.954;9.506;2024-01-30T12:10:29;102165.56;;;8.41;100.00
29315;BME280;16320;53.954;9.506;2024-01-30T12:12:58;102171.66;;;8.43;100.00
29315;BME280;16320;53.954;9.506;2024-01-30T12:15:27;102178.56;;;8.47;100.00
29315;BME280;16320;53.954;9.506;2024-01-30T12:18:07;102181.16;;;8.49;100.00
29315;BME280;16320;53.954;9.506;2024-01-30T12:20:35;102180.28;;;8.48;100.00
29315;BME280;16320;53.954;9.506;2024-01-30T12:23:04;102176.88;;;8.43;100.00
29315;BME280;16320;53.954;9.506;2024-01-30T12:25:32;102185.59;;;8.45;100.00
29315;BME280;16320;53.954;9.506;2024-01-30T12:28:01;102189.84;;;8.51;100.00
29315;BME280;16320;53.954;9.506;2024-01-30T12:30:29;102192.44;;;8.52;100.00
29315;BME280;16320;53.954;9.506;2024-01-30T12:32:57;102186.34;;;8.50;100.00
29315;BME280;16320;53.954;9.506;2024-01-30T12:35:26;102190.78;;;8.48;100.00
29315;BME280;16320;53.954;9.506;2024-01-30T12:37:58;102194.22;;;8.50;100.00
29315;BME280;16320;53.954;9.506;2024-01-30T12:40:27;102190.78;;;8.48;100.00
29315;BME280;16320;53.954;9.506;2024-01-30T12:42:57;102188.22;;;8.42;100.00
29315;BME280;16320;53.954;9.506;2024-01-30T12:45:25;102182.13;;;8.43;100.00
29315;BME280;16320;53.954;9.506;2024-01-30T12:47:53;102186.41;;;8.47;100.00
29315;BME280;16320;53.954;9.506;2024-01-30T12:50:22;102185.44;;;8.51;100.00
29315;BME280;16320;53.954;9.506;2024-01-30T12:52:50;102188.16;;;8.48;100.00
29315;BME280;16320;53.954;9.506;2024-01-30T12:55:18;102178.53;;;8.49;100.00
29315;BME280;16320;53.954;9.506;2024-01-30T12:57:46;102176.75;;;8.49;100.00
29315;BME280;16320;53.954;9.506;2024-01-30T13:00:14;102175.88;;;8.50;100.00
29315;BME280;16320;53.954;9.506;2024-01-30T13:02:44;102181.88;;;8.55;100.00
29315;BME280;16320;53.954;9.506;2024-01-30T13:05:12;102180.16;;;8.54;100.00
29315;BME280;16320;53.954;9.506;2024-01-30T13:07:41;102181.84;;;8.58;100.00
29315;BME280;16320;53.954;9.506;2024-01-30T13:10:09;102178.34;;;8.59;100.00